createdAt,value
2023-05-01T00:00:16.383Z,94882.00
2023-05-01T00:01:16.380Z,94882.00
2023-05-01T00:02:16.411Z,94884.00
2023-05-01T00:03:16.544Z,94884.00
2023-05-01T00:04:16.687Z,94882.00
2023-05-01T00:05:16.512Z,94880.00
2023-05-01T00:06:16.574Z,94884.00
2023-05-01T00:07:16.595Z,94880.00
2023-05-01T00:08:16.636Z,94880.00
2023-05-01T00:09:16.681Z,94880.00
2023-05-01T00:10:16.671Z,94880.00
2023-05-01T00:11:16.735Z,94878.00
2023-05-01T00:12:16.752Z,94882.00
2023-05-01T00:13:16.802Z,94878.00
2023-05-01T00:14:16.846Z,94878.00
2023-05-01T00:15:16.881Z,94876.00
2023-05-01T00:16:16.999Z,94876.00
2023-05-01T00:17:16.898Z,94876.00
2023-05-01T00:18:16.982Z,94882.00
2023-05-01T00:19:16.875Z,94878.00
2023-05-01T00:20:16.892Z,94876.00
2023-05-01T00:21:16.899Z,94880.00
2023-05-01T00:22:16.906Z,94876.00
2023-05-01T00:23:16.954Z,94876.00
2023-05-01T00:24:16.891Z,94876.00
2023-05-01T00:25:16.896Z,94876.00
2023-05-01T00:26:16.888Z,94876.00
2023-05-01T00:27:16.865Z,94876.00
2023-05-01T00:28:16.866Z,94874.00
2023-05-01T00:29:16.894Z,94874.00
2023-05-01T00:30:16.922Z,94872.00
2023-05-01T00:31:17.017Z,94870.00
2023-05-01T00:32:17.114Z,94868.00
2023-05-01T00:33:17.068Z,94868.00
2023-05-01T00:34:17.068Z,94868.00
2023-05-01T00:35:17.101Z,94868.00
2023-05-01T00:36:17.130Z,94866.00
2023-05-01T00:37:17.154Z,94866.00
2023-05-01T00:38:17.202Z,94866.00
2023-05-01T00:39:17.204Z,94866.00
2023-05-01T00:40:17.264Z,94868.00
2023-05-01T00:41:17.283Z,94870.00
2023-05-01T00:42:17.303Z,94872.00
2023-05-01T00:43:17.381Z,94872.00
2023-05-01T00:44:17.375Z,94872.00
2023-05-01T00:45:17.426Z,94870.00
2023-05-01T00:46:17.547Z,94868.00
2023-05-01T00:47:17.496Z,94864.00
2023-05-01T00:48:17.514Z,94864.00
2023-05-01T00:49:17.577Z,94862.00
2023-05-01T00:50:17.622Z,94862.00
2023-05-01T00:51:17.649Z,94862.00
2023-05-01T00:52:17.667Z,94860.00
2023-05-01T00:53:17.651Z,94858.00
2023-05-01T00:54:17.685Z,94862.00
2023-05-01T00:55:17.677Z,94862.00
2023-05-01T00:56:17.728Z,94860.00
2023-05-01T00:57:17.712Z,94860.00
2023-05-01T00:58:17.701Z,94860.00
2023-05-01T00:59:17.707Z,94856.00
2023-05-01T01:00:17.706Z,94856.00
2023-05-01T01:01:17.796Z,94853.00
2023-05-01T01:02:17.777Z,94854.00
2023-05-01T01:03:17.814Z,94853.00
2023-05-01T01:04:17.933Z,94853.00
2023-05-01T01:05:17.862Z,94849.00
2023-05-01T01:06:17.915Z,94851.00
2023-05-01T01:07:17.912Z,94851.00
2023-05-01T01:08:17.954Z,94851.00
2023-05-01T01:09:17.984Z,94849.00
2023-05-01T01:10:18.005Z,94847.00
2023-05-01T01:11:18.074Z,94851.00
2023-05-01T01:12:18.099Z,94851.00
2023-05-01T01:13:18.154Z,94851.00
2023-05-01T01:14:18.174Z,94849.00
2023-05-01T01:15:18.208Z,94849.00
2023-05-01T01:16:18.308Z,94849.00
2023-05-01T01:17:18.266Z,94847.00
2023-05-01T01:18:18.304Z,94849.00
2023-05-01T01:19:18.329Z,94847.00
2023-05-01T01:20:18.359Z,94847.00
2023-05-01T01:21:18.389Z,94847.00
2023-05-01T01:22:18.405Z,94845.00
2023-05-01T01:23:18.440Z,94849.00
2023-05-01T01:24:18.459Z,94845.00
2023-05-01T01:25:18.526Z,94845.00
2023-05-01T01:26:18.578Z,94847.00
2023-05-01T01:27:18.600Z,94847.00
2023-05-01T01:28:18.683Z,94845.00
2023-05-01T01:29:18.847Z,94847.00
2023-05-01T01:30:18.817Z,94849.00
2023-05-01T01:31:18.921Z,94847.00
2023-05-01T01:32:18.932Z,94849.00
2023-05-01T01:33:18.976Z,94849.00
2023-05-01T01:34:18.992Z,94847.00
2023-05-01T01:35:18.983Z,94847.00
2023-05-01T01:36:19.041Z,94845.00
2023-05-01T01:37:19.104Z,94849.00
2023-05-01T01:38:19.150Z,94845.00
2023-05-01T01:39:19.145Z,94845.00
2023-05-01T01:40:19.169Z,94845.00
2023-05-01T01:41:19.144Z,94845.00
2023-05-01T01:42:19.165Z,94843.00
2023-05-01T01:43:19.194Z,94843.00
2023-05-01T01:44:19.184Z,94841.00
2023-05-01T01:45:19.194Z,94839.00
2023-05-01T01:46:19.218Z,94837.00
2023-05-01T01:47:19.192Z,94839.00
2023-05-01T01:48:19.262Z,94837.00
2023-05-01T01:49:20.836Z,94835.00
2023-05-01T01:50:19.362Z,94837.00
2023-05-01T01:51:19.438Z,94837.00
2023-05-01T01:52:19.464Z,94831.00
2023-05-01T01:53:19.504Z,94829.00
2023-05-01T01:54:19.567Z,94831.00
2023-05-01T01:55:19.610Z,94831.00
2023-05-01T01:56:19.698Z,94831.00
2023-05-01T01:57:19.674Z,94835.00
2023-05-01T01:58:19.698Z,94835.00
2023-05-01T01:59:19.732Z,94829.00
2023-05-01T02:00:19.772Z,94829.00
2023-05-01T02:01:19.866Z,94827.00
2023-05-01T02:02:19.865Z,94831.00
2023-05-01T02:03:19.943Z,94833.00
2023-05-01T02:04:20.011Z,94831.00
2023-05-01T02:05:19.966Z,94827.00
2023-05-01T02:06:19.992Z,94825.00
2023-05-01T02:07:19.954Z,94825.00
2023-05-01T02:08:20.097Z,94825.00
2023-05-01T02:09:19.962Z,94827.00
2023-05-01T02:10:19.967Z,94825.00
2023-05-01T02:11:19.963Z,94829.00
2023-05-01T02:12:19.955Z,94827.00
2023-05-01T02:13:19.970Z,94823.00
2023-05-01T02:14:19.960Z,94825.00
2023-05-01T02:15:19.952Z,94827.00
2023-05-01T02:16:20.013Z,94825.00
2023-05-01T02:17:20.004Z,94823.00
2023-05-01T02:18:19.991Z,94821.00
2023-05-01T02:19:19.969Z,94819.00
2023-05-01T02:20:19.959Z,94821.00
2023-05-01T02:21:19.949Z,94821.00
2023-05-01T02:22:19.963Z,94819.00
2023-05-01T02:23:19.966Z,94815.00
2023-05-01T02:24:19.945Z,94813.00
2023-05-01T02:25:20.095Z,94811.00
2023-05-01T02:26:19.945Z,94813.00
2023-05-01T02:27:19.972Z,94817.00
2023-05-01T02:28:19.977Z,94817.00
2023-05-01T02:29:20.055Z,94813.00
2023-05-01T02:30:20.059Z,94811.00
2023-05-01T02:31:20.113Z,94809.00
2023-05-01T02:32:20.212Z,94807.00
2023-05-01T02:33:20.189Z,94804.00
2023-05-01T02:34:20.206Z,94807.00
2023-05-01T02:35:20.254Z,94807.00
2023-05-01T02:36:20.329Z,94809.00
2023-05-01T02:37:20.346Z,94807.00
2023-05-01T02:38:20.362Z,94809.00
2023-05-01T02:39:20.438Z,94807.00
2023-05-01T02:40:20.476Z,94804.00
2023-05-01T02:41:20.489Z,94806.00
2023-05-01T02:42:20.550Z,94806.00
2023-05-01T02:43:20.578Z,94804.00
2023-05-01T02:44:20.667Z,94804.00
2023-05-01T02:45:20.677Z,94802.00
2023-05-01T02:46:20.836Z,94802.00
2023-05-01T02:47:20.766Z,94800.00
2023-05-01T02:48:20.772Z,94802.00
2023-05-01T02:49:20.765Z,94804.00
2023-05-01T02:50:20.743Z,94800.00
2023-05-01T02:51:20.749Z,94802.00
2023-05-01T02:52:20.780Z,94798.00
2023-05-01T02:53:20.722Z,94798.00
2023-05-01T02:54:20.745Z,94796.00
2023-05-01T02:55:20.749Z,94796.00
2023-05-01T02:56:20.733Z,94792.00
2023-05-01T02:57:20.754Z,94794.00
2023-05-01T02:58:20.787Z,94792.00
2023-05-01T02:59:20.741Z,94796.00
2023-05-01T03:00:20.764Z,94796.00
2023-05-01T03:01:20.813Z,94796.00
2023-05-01T03:02:20.716Z,94792.00
2023-05-01T03:03:20.840Z,94792.00
2023-05-01T03:04:20.810Z,94784.00
2023-05-01T03:05:20.720Z,94792.00
2023-05-01T03:06:20.763Z,94792.00
2023-05-01T03:07:20.718Z,94792.00
2023-05-01T03:08:20.695Z,94792.00
2023-05-01T03:09:20.716Z,94788.00
2023-05-01T03:10:20.708Z,94790.00
2023-05-01T03:11:20.717Z,94790.00
2023-05-01T03:12:20.718Z,94786.00
2023-05-01T03:13:20.683Z,94788.00
2023-05-01T03:14:20.674Z,94784.00
2023-05-01T03:15:20.700Z,94784.00
2023-05-01T03:16:20.676Z,94784.00
2023-05-01T03:17:20.682Z,94784.00
2023-05-01T03:18:20.671Z,94782.00
2023-05-01T03:19:20.684Z,94780.00
2023-05-01T03:20:20.679Z,94780.00
2023-05-01T03:21:20.672Z,94778.00
2023-05-01T03:22:20.687Z,94776.00
2023-05-01T03:23:20.744Z,94778.00
2023-05-01T03:24:20.806Z,94776.00
2023-05-01T03:25:20.868Z,94776.00
2023-05-01T03:26:20.901Z,94774.00
2023-05-01T03:27:20.935Z,94776.00
2023-05-01T03:28:21.022Z,94776.00
2023-05-01T03:29:21.011Z,94774.00
2023-05-01T03:30:21.040Z,94774.00
2023-05-01T03:31:21.043Z,94774.00
2023-05-01T03:32:21.101Z,94774.00
2023-05-01T03:33:21.062Z,94774.00
2023-05-01T03:34:21.120Z,94772.00
2023-05-01T03:35:21.155Z,94768.00
2023-05-01T03:36:21.206Z,94766.00
2023-05-01T03:37:21.235Z,94768.00
2023-05-01T03:38:21.241Z,94772.00
2023-05-01T03:39:21.213Z,94768.00
2023-05-01T03:40:21.223Z,94770.00
2023-05-01T03:41:21.239Z,94766.00
2023-05-01T03:42:21.210Z,94762.00
2023-05-01T03:43:21.230Z,94762.00
2023-05-01T03:44:21.220Z,94762.00
2023-05-01T03:45:21.246Z,94760.00
2023-05-01T03:46:21.325Z,94762.00
2023-05-01T03:47:21.297Z,94764.00
2023-05-01T03:48:21.337Z,94766.00
2023-05-01T03:49:21.395Z,94760.00
2023-05-01T03:50:21.439Z,94759.00
2023-05-01T03:51:21.475Z,94760.00
2023-05-01T03:52:21.541Z,94757.00
2023-05-01T03:53:21.585Z,94757.00
2023-05-01T03:54:21.645Z,94755.00
2023-05-01T03:55:21.665Z,94757.00
2023-05-01T03:56:21.690Z,94757.00
2023-05-01T03:57:21.710Z,94757.00
2023-05-01T03:58:21.748Z,94755.00
2023-05-01T03:59:21.722Z,94757.00
2023-05-01T04:00:21.731Z,94757.00
2023-05-01T04:01:21.725Z,94755.00
2023-05-01T04:02:21.911Z,94757.00
2023-05-01T04:03:21.780Z,94755.00
2023-05-01T04:04:21.804Z,94755.00
2023-05-01T04:05:21.753Z,94757.00
2023-05-01T04:06:21.812Z,94757.00
2023-05-01T04:07:21.757Z,94753.00
2023-05-01T04:08:21.747Z,94755.00
2023-05-01T04:09:21.736Z,94751.00
2023-05-01T04:10:21.766Z,94753.00
2023-05-01T04:11:21.790Z,94753.00
2023-05-01T04:12:21.861Z,94753.00
2023-05-01T04:13:21.893Z,94753.00
2023-05-01T04:14:21.937Z,94751.00
2023-05-01T04:15:22.001Z,94751.00
2023-05-01T04:16:22.067Z,94751.00
2023-05-01T04:17:21.981Z,94749.00
2023-05-01T04:18:22.043Z,94753.00
2023-05-01T04:19:22.060Z,94753.00
2023-05-01T04:20:22.064Z,94755.00
2023-05-01T04:21:22.050Z,94753.00
2023-05-01T04:22:22.036Z,94753.00
2023-05-01T04:23:23.141Z,94751.00
2023-05-01T04:24:22.053Z,94753.00
2023-05-01T04:25:22.080Z,94751.00
2023-05-01T04:26:22.047Z,94749.00
2023-05-01T04:27:22.084Z,94751.00
2023-05-01T04:28:22.082Z,94749.00
2023-05-01T04:29:22.134Z,94749.00
2023-05-01T04:30:22.183Z,94747.00
2023-05-01T04:31:22.281Z,94747.00
2023-05-01T04:32:22.352Z,94749.00
2023-05-01T04:33:22.334Z,94749.00
2023-05-01T04:34:22.407Z,94749.00
2023-05-01T04:35:22.437Z,94751.00
2023-05-01T04:36:22.508Z,94751.00
2023-05-01T04:37:22.543Z,94751.00
2023-05-01T04:38:22.566Z,94749.00
2023-05-01T04:39:22.643Z,94747.00
2023-05-01T04:40:22.699Z,94747.00
2023-05-01T04:41:22.758Z,94747.00
2023-05-01T04:42:22.811Z,94749.00
2023-05-01T04:43:22.837Z,94749.00
2023-05-01T04:44:22.909Z,94745.00
2023-05-01T04:45:22.960Z,94747.00
2023-05-01T04:46:23.041Z,94745.00
2023-05-01T04:47:23.046Z,94747.00
2023-05-01T04:48:23.249Z,94747.00
2023-05-01T04:49:23.159Z,94749.00
2023-05-01T04:50:23.198Z,94749.00
2023-05-01T04:51:23.177Z,94751.00
2023-05-01T04:52:23.176Z,94749.00
2023-05-01T04:53:23.185Z,94749.00
2023-05-01T04:54:23.197Z,94749.00
2023-05-01T04:55:23.206Z,94751.00
2023-05-01T04:56:23.217Z,94751.00
2023-05-01T04:57:23.291Z,94753.00
2023-05-01T04:58:23.307Z,94749.00
2023-05-01T04:59:23.387Z,94755.00
2023-05-01T05:00:30.408Z,94753.00
2023-05-01T05:01:23.532Z,94755.00
2023-05-01T05:02:23.537Z,94759.00
2023-05-01T05:03:23.478Z,94759.00
2023-05-01T05:04:23.409Z,94760.00
2023-05-01T05:05:23.409Z,94760.00
2023-05-01T05:06:23.432Z,94760.00
2023-05-01T05:07:23.396Z,94757.00
2023-05-01T05:08:23.381Z,94757.00
2023-05-01T05:09:23.367Z,94759.00
2023-05-01T05:10:23.384Z,94759.00
2023-05-01T05:11:23.371Z,94760.00
2023-05-01T05:12:23.364Z,94762.00
2023-05-01T05:13:23.363Z,94766.00
2023-05-01T05:14:23.348Z,94762.00
2023-05-01T05:15:23.360Z,94762.00
2023-05-01T05:16:23.381Z,94766.00
2023-05-01T05:17:23.326Z,94762.00
2023-05-01T05:18:23.385Z,94760.00
2023-05-01T05:19:23.367Z,94757.00
2023-05-01T05:20:23.297Z,94757.00
2023-05-01T05:21:23.317Z,94759.00
2023-05-01T05:22:23.295Z,94757.00
2023-05-01T05:23:23.315Z,94757.00
2023-05-01T05:24:23.273Z,94755.00
2023-05-01T05:25:23.359Z,94753.00
2023-05-01T05:26:23.418Z,94753.00
2023-05-01T05:27:23.479Z,94755.00
2023-05-01T05:28:23.485Z,94755.00
2023-05-01T05:29:23.567Z,94753.00
2023-05-01T05:30:23.617Z,94755.00
2023-05-01T05:31:23.711Z,94753.00
2023-05-01T05:32:23.815Z,94753.00
2023-05-01T05:33:23.784Z,94755.00
2023-05-01T05:34:23.833Z,94755.00
2023-05-01T05:35:23.858Z,94757.00
2023-05-01T05:36:23.878Z,94757.00
2023-05-01T05:37:23.862Z,94759.00
2023-05-01T05:38:23.849Z,94757.00
2023-05-01T05:39:23.882Z,94757.00
2023-05-01T05:40:23.884Z,94759.00
2023-05-01T05:41:23.907Z,94762.00
2023-05-01T05:42:23.895Z,94764.00
2023-05-01T05:44:23.933Z,94764.00
2023-05-01T05:45:30.925Z,94764.00
2023-05-01T05:46:24.015Z,94762.00
2023-05-01T05:47:23.916Z,94764.00
2023-05-01T05:48:23.974Z,94762.00
2023-05-01T05:49:23.948Z,94760.00
2023-05-01T05:50:23.944Z,94760.00
2023-05-01T05:51:23.893Z,94757.00
2023-05-01T05:52:23.912Z,94760.00
2023-05-01T05:53:25.891Z,94762.00
2023-05-01T05:54:23.906Z,94762.00
2023-05-01T05:55:23.871Z,94764.00
2023-05-01T05:56:23.903Z,94764.00
2023-05-01T05:57:23.964Z,94760.00
2023-05-01T05:58:24.002Z,94762.00
2023-05-01T05:59:24.094Z,94762.00
2023-05-01T06:00:24.125Z,94760.00
2023-05-01T06:01:24.222Z,94762.00
2023-05-01T06:02:24.397Z,94764.00
2023-05-01T06:03:24.470Z,94764.00
2023-05-01T06:04:24.368Z,94764.00
2023-05-01T06:05:24.457Z,94762.00
2023-05-01T06:06:24.539Z,94764.00
2023-05-01T06:07:24.548Z,94764.00
2023-05-01T06:08:24.657Z,94764.00
2023-05-01T06:09:24.683Z,94762.00
2023-05-01T06:10:24.729Z,94757.00
2023-05-01T06:11:24.794Z,94757.00
2023-05-01T06:12:24.863Z,94755.00
2023-05-01T06:13:24.920Z,94755.00
2023-05-01T06:14:25.004Z,94755.00
2023-05-01T06:15:25.044Z,94755.00
2023-05-01T06:16:25.139Z,94755.00
2023-05-01T06:17:25.210Z,94755.00
2023-05-01T06:18:25.261Z,94757.00
2023-05-01T06:19:25.333Z,94755.00
2023-05-01T06:20:25.374Z,94755.00
2023-05-01T06:21:25.443Z,94757.00
2023-05-01T06:22:25.461Z,94753.00
2023-05-01T06:23:25.563Z,94753.00
2023-05-01T06:24:25.607Z,94751.00
2023-05-01T06:25:25.632Z,94751.00
2023-05-01T06:26:25.698Z,94751.00
2023-05-01T06:27:25.761Z,94749.00
2023-05-01T06:28:25.843Z,94749.00
2023-05-01T06:29:25.859Z,94755.00
2023-05-01T06:30:25.929Z,94751.00
2023-05-01T06:31:25.987Z,94751.00
2023-05-01T06:32:25.985Z,94753.00
2023-05-01T06:33:25.970Z,94751.00
2023-05-01T06:34:25.976Z,94751.00
2023-05-01T06:35:26.038Z,94749.00
2023-05-01T06:36:26.038Z,94745.00
2023-05-01T06:37:26.007Z,94741.00
2023-05-01T06:38:27.083Z,94739.00
2023-05-01T06:39:26.070Z,94743.00
2023-05-01T06:40:26.043Z,94743.00
2023-05-01T06:41:26.092Z,94745.00
2023-05-01T06:42:26.097Z,94745.00
2023-05-01T06:43:26.101Z,94747.00
2023-05-01T06:44:26.131Z,94747.00
2023-05-01T06:45:26.131Z,94747.00
2023-05-01T06:46:26.189Z,94745.00
2023-05-01T06:47:26.184Z,94745.00
2023-05-01T06:48:26.178Z,94747.00
2023-05-01T06:49:26.157Z,94747.00
2023-05-01T06:50:26.177Z,94749.00
2023-05-01T06:51:26.150Z,94751.00
2023-05-01T06:52:26.200Z,94749.00
2023-05-01T06:53:26.197Z,94749.00
2023-05-01T06:54:26.207Z,94749.00
2023-05-01T06:55:26.220Z,94753.00
2023-05-01T06:56:26.224Z,94749.00
2023-05-01T06:57:26.237Z,94751.00
2023-05-01T06:58:26.247Z,94751.00
2023-05-01T06:59:26.247Z,94751.00
2023-05-01T07:00:26.340Z,94749.00
2023-05-01T07:01:26.409Z,94753.00
2023-05-01T07:02:26.345Z,94751.00
2023-05-01T07:03:26.392Z,94749.00
2023-05-01T07:04:26.324Z,94747.00
2023-05-01T07:05:26.331Z,94745.00
2023-05-01T07:06:26.426Z,94747.00
2023-05-01T07:07:26.428Z,94747.00
2023-05-01T07:08:26.451Z,94747.00
2023-05-01T07:09:26.517Z,94747.00
2023-05-01T07:10:26.580Z,94747.00
2023-05-01T07:11:26.649Z,94747.00
2023-05-01T07:12:26.692Z,94749.00
2023-05-01T07:13:26.775Z,94747.00
2023-05-01T07:14:26.761Z,94749.00
2023-05-01T07:15:26.768Z,94751.00
2023-05-01T07:16:26.799Z,94751.00
2023-05-01T07:17:26.804Z,94749.00
2023-05-01T07:18:26.786Z,94753.00
2023-05-01T07:19:26.800Z,94751.00
2023-05-01T07:20:26.823Z,94749.00
2023-05-01T07:21:26.875Z,94751.00
2023-05-01T07:22:26.882Z,94749.00
2023-05-01T07:23:26.974Z,94751.00
2023-05-01T07:24:26.943Z,94753.00
2023-05-01T07:25:26.950Z,94751.00
2023-05-01T07:26:27.011Z,94753.00
2023-05-01T07:27:26.979Z,94751.00
2023-05-01T07:28:26.991Z,94749.00
2023-05-01T07:29:26.981Z,94747.00
2023-05-01T07:30:26.998Z,94751.00
2023-05-01T07:31:27.136Z,94745.00
2023-05-01T07:32:27.073Z,94747.00
2023-05-01T07:33:27.058Z,94743.00
2023-05-01T07:34:27.144Z,94745.00
2023-05-01T07:35:27.183Z,94743.00
2023-05-01T07:36:27.294Z,94741.00
2023-05-01T07:37:27.307Z,94743.00
2023-05-01T07:38:27.359Z,94741.00
2023-05-01T07:39:27.376Z,94739.00
2023-05-01T07:40:27.467Z,94741.00
2023-05-01T07:41:27.503Z,94739.00
2023-05-01T07:42:27.587Z,94741.00
2023-05-01T07:43:27.626Z,94739.00
2023-05-01T07:44:27.648Z,94737.00
2023-05-01T07:45:27.720Z,94741.00
2023-05-01T07:46:27.898Z,94735.00
2023-05-01T07:47:28.053Z,94735.00
2023-05-01T07:48:27.865Z,94735.00
2023-05-01T07:49:27.917Z,94735.00
2023-05-01T07:50:27.996Z,94735.00
2023-05-01T07:51:28.034Z,94733.00
2023-05-01T07:52:28.078Z,94739.00
2023-05-01T07:53:28.114Z,94739.00
2023-05-01T07:54:28.184Z,94739.00
2023-05-01T07:55:28.244Z,94741.00
2023-05-01T07:56:28.348Z,94739.00
2023-05-01T07:57:28.333Z,94739.00
2023-05-01T07:58:28.383Z,94739.00
2023-05-01T07:59:28.433Z,94737.00
2023-05-01T08:00:28.514Z,94739.00
2023-05-01T08:01:28.559Z,94735.00
2023-05-01T08:02:28.727Z,94733.00
2023-05-01T08:03:28.827Z,94735.00
2023-05-01T08:04:28.803Z,94731.00
2023-05-01T08:05:28.782Z,94733.00
2023-05-01T08:06:28.836Z,94735.00
2023-05-01T08:07:28.860Z,94735.00
2023-05-01T08:08:28.910Z,94733.00
2023-05-01T08:09:28.988Z,94731.00
2023-05-01T08:10:29.038Z,94729.00
2023-05-01T08:11:29.105Z,94729.00
2023-05-01T08:12:29.147Z,94729.00
2023-05-01T08:13:29.192Z,94729.00
2023-05-01T08:14:29.245Z,94727.00
2023-05-01T08:15:29.250Z,94725.00
2023-05-01T08:16:29.414Z,94727.00
2023-05-01T08:17:29.422Z,94731.00
2023-05-01T08:18:29.415Z,94731.00
2023-05-01T08:19:29.491Z,94731.00
2023-05-01T08:20:29.507Z,94733.00
2023-05-01T08:21:29.572Z,94733.00
2023-05-01T08:22:29.618Z,94733.00
2023-05-01T08:23:29.706Z,94731.00
2023-05-01T08:24:29.717Z,94733.00
2023-05-01T08:25:29.782Z,94733.00
2023-05-01T08:26:29.831Z,94727.00
2023-05-01T08:27:29.901Z,94729.00
2023-05-01T08:28:29.943Z,94729.00
2023-05-01T08:29:29.944Z,94727.00
2023-05-01T08:30:30.021Z,94727.00
2023-05-01T08:31:30.102Z,94731.00
2023-05-01T08:32:30.150Z,94729.00
2023-05-01T08:33:30.170Z,94731.00
2023-05-01T08:34:30.199Z,94727.00
2023-05-01T08:35:30.343Z,94727.00
2023-05-01T08:36:30.286Z,94731.00
2023-05-01T08:37:30.341Z,94729.00
2023-05-01T08:38:30.481Z,94727.00
2023-05-01T08:39:30.424Z,94723.00
2023-05-01T08:40:30.499Z,94723.00
2023-05-01T08:41:30.551Z,94723.00
2023-05-01T08:42:32.272Z,94721.00
2023-05-01T08:43:30.635Z,94720.00
2023-05-01T08:44:30.682Z,94720.00
2023-05-01T08:45:30.714Z,94720.00
2023-05-01T08:46:30.791Z,94720.00
2023-05-01T08:47:30.920Z,94718.00
2023-05-01T08:48:30.864Z,94718.00
2023-05-01T08:49:30.894Z,94718.00
2023-05-01T08:50:30.935Z,94716.00
2023-05-01T08:51:31.091Z,94716.00
2023-05-01T08:52:31.074Z,94716.00
2023-05-01T08:53:31.104Z,94714.00
2023-05-01T08:54:31.171Z,94712.00
2023-05-01T08:55:31.213Z,94712.00
2023-05-01T08:56:31.323Z,94714.00
2023-05-01T08:57:31.341Z,94712.00
2023-05-01T08:58:31.351Z,94712.00
2023-05-01T08:59:31.344Z,94710.00
2023-05-01T09:00:31.350Z,94710.00
2023-05-01T09:01:31.431Z,94712.00
2023-05-01T09:02:31.455Z,94712.00
2023-05-01T09:03:31.550Z,94712.00
2023-05-01T09:04:31.524Z,94712.00
2023-05-01T09:05:31.579Z,94710.00
2023-05-01T09:06:31.659Z,94710.00
2023-05-01T09:07:31.674Z,94708.00
2023-05-01T09:08:31.723Z,94704.00
2023-05-01T09:09:31.757Z,94704.00
2023-05-01T09:10:33.037Z,94700.00
2023-05-01T09:11:31.834Z,94704.00
2023-05-01T09:12:31.908Z,94702.00
2023-05-01T09:13:31.918Z,94704.00
2023-05-01T09:14:31.950Z,94704.00
2023-05-01T09:15:31.994Z,94702.00
2023-05-01T09:16:32.139Z,94704.00
2023-05-01T09:17:32.138Z,94700.00
2023-05-01T09:18:32.123Z,94700.00
2023-05-01T09:19:32.133Z,94700.00
2023-05-01T09:20:32.168Z,94698.00
2023-05-01T09:21:32.214Z,94700.00
2023-05-01T09:22:32.246Z,94700.00
2023-05-01T09:23:32.301Z,94702.00
2023-05-01T09:24:32.354Z,94702.00
2023-05-01T09:25:32.401Z,94696.00
2023-05-01T09:26:32.428Z,94696.00
2023-05-01T09:27:32.482Z,94694.00
2023-05-01T09:28:32.510Z,94694.00
2023-05-01T09:29:32.539Z,94696.00
2023-05-01T09:30:32.582Z,94692.00
2023-05-01T09:31:32.686Z,94694.00
2023-05-01T09:32:32.596Z,94690.00
2023-05-01T09:33:32.571Z,94688.00
2023-05-01T09:34:32.562Z,94686.00
2023-05-01T09:35:32.566Z,94686.00
2023-05-01T09:36:32.572Z,94682.00
2023-05-01T09:37:32.627Z,94682.00
2023-05-01T09:38:32.592Z,94682.00
2023-05-01T09:39:32.665Z,94678.00
2023-05-01T09:40:32.657Z,94674.00
2023-05-01T09:41:32.688Z,94678.00
2023-05-01T09:42:32.708Z,94674.00
2023-05-01T09:43:32.745Z,94674.00
2023-05-01T09:44:32.774Z,94672.00
2023-05-01T09:45:32.843Z,94674.00
2023-05-01T09:46:32.899Z,94670.00
2023-05-01T09:47:32.916Z,94676.00
2023-05-01T09:48:35.355Z,94672.00
2023-05-01T09:49:32.928Z,94670.00
2023-05-01T09:50:32.957Z,94670.00
2023-05-01T09:51:32.895Z,94668.00
2023-05-01T09:52:32.922Z,94668.00
2023-05-01T09:53:32.883Z,94668.00
2023-05-01T09:54:32.885Z,94666.00
2023-05-01T09:55:32.889Z,94666.00
2023-05-01T09:56:32.863Z,94666.00
2023-05-01T09:57:32.876Z,94666.00
2023-05-01T09:58:32.844Z,94665.00
2023-05-01T09:59:32.854Z,94663.00
2023-05-01T10:00:32.840Z,94661.00
2023-05-01T10:01:32.870Z,94661.00
2023-05-01T10:02:32.976Z,94661.00
2023-05-01T10:03:32.967Z,94659.00
2023-05-01T10:04:32.810Z,94649.00
2023-05-01T10:05:32.798Z,94649.00
2023-05-01T10:06:32.859Z,94647.00
2023-05-01T10:07:32.814Z,94647.00
2023-05-01T10:08:32.804Z,94647.00
2023-05-01T10:09:32.796Z,94643.00
2023-05-01T10:10:32.833Z,94645.00
2023-05-01T10:11:32.798Z,94643.00
2023-05-01T10:12:32.789Z,94643.00
2023-05-01T10:13:32.746Z,94639.00
2023-05-01T10:14:32.759Z,94639.00
2023-05-01T10:15:32.737Z,94637.00
2023-05-01T10:16:32.805Z,94637.00
2023-05-01T10:17:32.772Z,94639.00
2023-05-01T10:18:32.703Z,94639.00
2023-05-01T10:19:32.729Z,94637.00
2023-05-01T10:20:32.774Z,94639.00
2023-05-01T10:21:32.735Z,94635.00
2023-05-01T10:22:32.717Z,94639.00
2023-05-01T10:23:32.672Z,94637.00
2023-05-01T10:24:32.697Z,94635.00
2023-05-01T10:25:32.676Z,94637.00
2023-05-01T10:26:32.710Z,94635.00
2023-05-01T10:27:32.669Z,94633.00
2023-05-01T10:28:32.686Z,94633.00
2023-05-01T10:29:32.642Z,94635.00
2023-05-01T10:30:32.649Z,94633.00
2023-05-01T10:31:32.713Z,94633.00
2023-05-01T10:32:32.692Z,94635.00
2023-05-01T10:33:32.657Z,94633.00
2023-05-01T10:34:32.610Z,94633.00
2023-05-01T10:35:32.585Z,94629.00
2023-05-01T10:36:32.636Z,94626.00
2023-05-01T10:37:32.616Z,94626.00
2023-05-01T10:38:32.615Z,94626.00
2023-05-01T10:39:32.604Z,94623.00
2023-05-01T10:40:32.589Z,94621.00
2023-05-01T10:41:32.615Z,94620.00
2023-05-01T10:42:32.565Z,94618.00
2023-05-01T10:43:32.590Z,94620.00
2023-05-01T10:44:32.625Z,94616.00
2023-05-01T10:45:33.911Z,94616.00
2023-05-01T10:46:32.940Z,94614.00
2023-05-01T10:47:32.845Z,94614.00
2023-05-01T10:48:32.886Z,94612.00
2023-05-01T10:49:32.929Z,94610.00
2023-05-01T10:50:32.910Z,94610.00
2023-05-01T10:51:32.943Z,94608.00
2023-05-01T10:52:32.981Z,94610.00
2023-05-01T10:53:32.971Z,94604.00
2023-05-01T10:54:33.027Z,94606.00
2023-05-01T10:55:33.046Z,94602.00
2023-05-01T10:56:33.100Z,94602.00
2023-05-01T10:57:33.082Z,94598.00
2023-05-01T10:58:33.169Z,94598.00
2023-05-01T10:59:33.192Z,94596.00
2023-05-01T11:00:33.247Z,94596.00
2023-05-01T11:01:33.468Z,94594.00
2023-05-01T11:02:33.414Z,94592.00
2023-05-01T11:03:33.424Z,94592.00
2023-05-01T11:04:33.474Z,94588.00
2023-05-01T11:05:38.613Z,94590.00
2023-05-01T11:06:34.690Z,94588.00
2023-05-01T11:07:33.564Z,94586.00
2023-05-01T11:08:33.529Z,94586.00
2023-05-01T11:09:33.528Z,94584.00
2023-05-01T11:10:33.518Z,94586.00
2023-05-01T11:11:33.507Z,94582.00
2023-05-01T11:12:33.491Z,94582.00
2023-05-01T11:13:33.466Z,94582.00
2023-05-01T11:14:33.481Z,94582.00
2023-05-01T11:15:33.484Z,94580.00
2023-05-01T11:16:33.496Z,94580.00
2023-05-01T11:17:33.526Z,94574.00
2023-05-01T11:18:33.467Z,94574.00
2023-05-01T11:19:33.437Z,94576.00
2023-05-01T11:20:33.445Z,94578.00
2023-05-01T11:21:33.464Z,94574.00
2023-05-01T11:22:33.474Z,94576.00
2023-05-01T11:23:33.473Z,94576.00
2023-05-01T11:24:33.522Z,94580.00
2023-05-01T11:25:33.537Z,94576.00
2023-05-01T11:26:33.547Z,94574.00
2023-05-01T11:27:33.613Z,94573.00
2023-05-01T11:28:33.596Z,94573.00
2023-05-01T11:29:33.629Z,94571.00
2023-05-01T11:30:33.660Z,94569.00
2023-05-01T11:31:33.766Z,94569.00
2023-05-01T11:32:33.705Z,94569.00
2023-05-01T11:33:33.711Z,94569.00
2023-05-01T11:34:33.734Z,94565.00
2023-05-01T11:35:33.775Z,94561.00
2023-05-01T11:36:33.805Z,94559.00
2023-05-01T11:37:33.799Z,94563.00
2023-05-01T11:38:33.849Z,94561.00
2023-05-01T11:39:33.927Z,94559.00
2023-05-01T11:40:33.970Z,94557.00
2023-05-01T11:41:33.995Z,94557.00
2023-05-01T11:42:34.102Z,94561.00
2023-05-01T11:43:34.065Z,94559.00
2023-05-01T11:44:34.074Z,94559.00
2023-05-01T11:45:34.185Z,94557.00